Time;durP1;ratioP1;P1;durP2;ratioP2;P2;SDS_P1;SDS_P2;PMS_P1;PMS_P2;Temp;Humidity;BMP_temperature;BMP_pressure;BME280_temperature;BME280_humidity;BME280_pressure;Samples;Min_cycle;Max_cycle;Signal;HPM_P1;HPM_P2
2023/08/09 00:02:21;;;;;;;10.93;9.67;;;14.40;99.90;;;;;;4985666;28;20875;-63
2023/08/09 00:04:48;;;;;;;9.93;9.00;;;14.40;99.90;;;;;;4985347;28;20465;-61
2023/08/09 00:07:15;;;;;;;11.47;8.10;;;14.40;99.90;;;;;;4980858;28;20437;-63
2023/08/09 00:09:42;;;;;;;9.50;8.20;;;14.40;99.90;;;;;;4981503;28;20461;-62
2023/08/09 00:12:10;;;;;;;8.90;8.03;;;14.40;99.90;;;;;;4964196;28;20474;-61
2023/08/09 00:14:37;;;;;;;8.23;7.43;;;14.40;99.90;;;;;;4960576;29;20816;-62
2023/08/09 00:17:05;;;;;;;8.27;7.30;;;14.40;99.90;;;;;;4959422;29;20470;-62
2023/08/09 00:19:33;;;;;;;7.93;6.60;;;14.40;99.90;;;;;;4959443;29;20459;-61
2023/08/09 00:22:00;;;;;;;7.23;6.53;;;14.40;99.90;;;;;;4970561;28;20474;-62
2023/08/09 00:24:27;;;;;;;7.63;6.83;;;14.40;99.90;;;;;;4978831;28;20472;-62
2023/08/09 00:26:54;;;;;;;7.03;6.37;;;14.50;99.90;;;;;;4980837;28;20538;-60
2023/08/09 00:29:22;;;;;;;7.50;6.00;;;14.50;99.90;;;;;;4979257;28;20461;-59
2023/08/09 00:31:49;;;;;;;7.60;6.90;;;14.50;99.90;;;;;;4976571;28;20525;-61
2023/08/09 00:34:18;;;;;;;7.60;6.90;;;14.50;99.90;;;;;;4961726;28;20467;-61
2023/08/09 00:36:45;;;;;;;8.33;6.83;;;14.50;99.90;;;;;;4960574;29;20554;-61
2023/08/09 00:39:13;;;;;;;8.23;6.67;;;14.50;99.90;;;;;;4959877;29;20757;-61
2023/08/09 00:41:41;;;;;;;9.57;7.37;;;14.40;99.90;;;;;;4958656;28;20565;-60
2023/08/09 00:44:08;;;;;;;7.60;6.90;;;14.40;99.90;;;;;;4974407;28;20784;-59
2023/08/09 00:46:37;;;;;;;8.57;7.77;;;14.50;99.90;;;;;;4958868;29;20759;-59
2023/08/09 00:49:05;;;;;;;8.80;7.63;;;14.50;99.90;;;;;;4958913;29;20466;-59
2023/08/09 00:51:34;;;;;;;9.13;8.20;;;14.50;99.90;;;;;;4958449;29;20541;-60
2023/08/09 00:54:01;;;;;;;9.03;8.23;;;14.50;99.90;;;;;;4973261;28;20992;-59
2023/08/09 00:56:28;;;;;;;9.03;7.73;;;14.50;99.90;;;;;;4981633;28;20552;-61
2023/08/09 00:58:56;;;;;;;8.27;7.43;;;14.50;99.90;;;;;;4966687;28;20477;-62
2023/08/09 01:01:23;;;;;;;3.90;3.50;;;14.50;99.90;;;;;;4959437;29;20463;-62
2023/08/09 01:03:50;;;;;;;3.07;2.77;;;14.20;99.90;;;;;;4961024;29;20469;-60
2023/08/09 01:06:30;;;;;;;3.30;2.77;;;14.10;99.90;;;;;;4960778;29;20465;-62
2023/08/09 01:09:04;;;;;;;2.83;2.50;;;14.10;99.90;;;;;;4980976;28;20560;-61
2023/08/09 01:11:42;;;;;;;2.57;2.10;;;14.10;99.90;;;;;;4983077;28;20469;-62
2023/08/09 01:14:12;;;;;;;2.93;1.70;;;14.20;99.90;;;;;;4978916;28;20458;-62
2023/08/09 01:16:40;;;;;;;2.30;1.70;;;14.00;99.90;;;;;;4980800;28;20493;-62
2023/08/09 01:19:12;;;;;;;2.23;1.40;;;13.80;99.90;;;;;;4966958;28;20466;-60
2023/08/09 01:21:44;;;;;;;2.67;1.93;;;13.80;99.90;;;;;;4962273;28;20477;-60
2023/08/09 01:24:13;;;;;;;2.30;1.30;;;13.70;99.90;;;;;;4962536;28;20761;-60
2023/08/09 01:26:42;;;;;;;2.33;1.80;;;13.70;99.90;;;;;;4962639;29;20471;-60
2023/08/09 01:29:09;;;;;;;2.93;1.70;;;13.70;99.90;;;;;;4970398;28;20462;-59
2023/08/09 01:31:36;;;;;;;2.30;1.80;;;13.70;99.90;;;;;;4982076;28;20548;-60
2023/08/09 01:34:04;;;;;;;2.53;1.80;;;13.80;99.90;;;;;;4982007;28;20474;-60
2023/08/09 01:36:36;;;;;;;2.80;2.17;;;13.80;99.90;;;;;;4981533;28;20950;-60
2023/08/09 01:39:11;;;;;;;2.73;1.90;;;13.90;99.90;;;;;;4975985;28;20471;-60
2023/08/09 01:41:42;;;;;;;2.30;1.90;;;14.00;99.90;;;;;;4961893;28;20522;-60
2023/08/09 01:44:11;;;;;;;3.30;1.80;;;14.00;99.90;;;;;;4961989;28;20441;-59
2023/08/09 01:46:39;;;;;;;2.30;1.67;;;14.00;99.90;;;;;;4962048;29;20884;-60
2023/08/09 01:49:11;;;;;;;2.73;1.70;;;14.00;99.90;;;;;;4961312;28;20770;-60
2023/08/09 01:51:38;;;;;;;3.30;1.80;;;13.90;99.90;;;;;;4961900;28;20486;-60
2023/08/09 01:54:07;;;;;;;6.47;2.20;;;13.90;99.90;;;;;;4961840;29;20549;-60
2023/08/09 01:56:34;;;;;;;3.23;1.90;;;14.00;99.90;;;;;;4974218;28;20490;-59
2023/08/09 01:59:05;;;;;;;2.50;1.70;;;14.00;99.90;;;;;;4980714;28;20556;-59
2023/08/09 02:01:33;;;;;;;2.60;1.83;;;13.90;99.90;;;;;;4961949;28;20481;-59
2023/08/09 02:04:00;;;;;;;3.23;2.00;;;13.80;99.90;;;;;;4961712;29;20484;-59
2023/08/09 02:06:27;;;;;;;2.50;1.73;;;13.70;99.90;;;;;;4968425;28;20461;-59
2023/08/09 02:08:54;;;;;;;2.33;2.10;;;13.80;99.90;;;;;;4979729;28;20464;-60
2023/08/09 02:11:22;;;;;;;2.87;1.93;;;13.80;99.90;;;;;;4981318;28;20466;-59
2023/08/09 02:13:49;;;;;;;2.70;1.93;;;13.80;99.90;;;;;;4980847;28;20466;-60
2023/08/09 02:16:18;;;;;;;2.97;2.30;;;13.80;99.90;;;;;;4976618;28;21295;-60
2023/08/09 02:18:45;;;;;;;3.13;2.30;;;13.80;99.90;;;;;;4960845;29;20467;-60
2023/08/09 02:21:12;;;;;;;2.90;2.00;;;13.80;99.90;;;;;;4960729;28;20474;-60
2023/08/09 02:23:39;;;;;;;2.90;2.50;;;13.90;99.90;;;;;;4960903;29;20545;-60
2023/08/09 02:26:08;;;;;;;2.57;2.03;;;13.90;99.90;;;;;;4960792;28;20931;-60
2023/08/09 02:28:36;;;;;;;3.77;2.30;;;13.90;99.90;;;;;;4960441;28;20466;-61
2023/08/09 02:31:03;;;;;;;2.80;2.00;;;13.90;99.90;;;;;;4960122;28;20475;-60
2023/08/09 02:33:31;;;;;;;2.43;2.07;;;13.90;99.90;;;;;;4960449;29;20462;-61
2023/08/09 02:36:01;;;;;;;3.27;2.60;;;13.90;99.90;;;;;;4959483;29;20812;-61
2023/08/09 02:38:31;;;;;;;2.90;2.07;;;13.80;99.90;;;;;;4971568;28;20477;-61
2023/08/09 02:41:00;;;;;;;2.63;2.00;;;13.80;99.90;;;;;;4977894;28;20785;-61
2023/08/09 02:43:27;;;;;;;2.90;2.60;;;13.90;99.90;;;;;;4979989;28;20461;-61
2023/08/09 02:45:56;;;;;;;3.33;2.40;;;13.80;99.90;;;;;;4979752;28;20465;-61
2023/08/09 02:48:24;;;;;;;3.27;2.97;;;13.80;99.90;;;;;;4970549;28;20834;-61
2023/08/09 02:50:52;;;;;;;3.80;2.53;;;13.80;99.90;;;;;;4959655;28;20924;-61
2023/08/09 02:53:20;;;;;;;3.30;2.70;;;13.80;99.90;;;;;;4960005;29;20593;-61
2023/08/09 02:55:47;;;;;;;2.90;2.40;;;13.70;99.90;;;;;;4960276;28;20538;-61
2023/08/09 02:58:15;;;;;;;3.20;2.60;;;13.70;99.90;;;;;;4962763;28;20484;-61
2023/08/09 03:00:42;;;;;;;3.47;3.00;;;13.70;99.90;;;;;;4978980;28;20555;-61
2023/08/09 03:03:09;;;;;;;2.83;2.53;;;13.70;99.90;;;;;;4979260;28;20565;-61
2023/08/09 03:05:36;;;;;;;3.70;2.90;;;13.70;99.90;;;;;;4979459;28;20462;-61
2023/08/09 03:08:05;;;;;;;3.70;3.40;;;13.70;99.90;;;;;;4979221;28;20465;-61
2023/08/09 03:10:32;;;;;;;3.63;3.33;;;13.60;99.90;;;;;;4961963;28;20467;-61
2023/08/09 03:13:00;;;;;;;3.50;3.20;;;13.60;99.90;;;;;;4959399;28;20462;-62
2023/08/09 03:15:27;;;;;;;4.90;3.80;;;13.60;99.90;;;;;;4959775;29;20561;-61
2023/08/09 03:17:54;;;;;;;5.77;3.77;;;13.50;99.90;;;;;;4959508;29;20463;-61
2023/08/09 03:20:22;;;;;;;3.40;3.10;;;13.60;99.90;;;;;;4969824;28;20473;-61
2023/08/09 03:22:49;;;;;;;3.97;3.40;;;13.60;99.90;;;;;;4978378;28;20445;-61
2023/08/09 03:25:20;;;;;;;3.53;3.20;;;13.60;99.90;;;;;;4979111;28;20482;-62
2023/08/09 03:27:47;;;;;;;4.67;3.43;;;13.50;99.90;;;;;;4979071;28;20520;-61
2023/08/09 03:30:14;;;;;;;3.50;3.10;;;13.50;99.90;;;;;;4972038;28;20463;-61
2023/08/09 03:32:41;;;;;;;5.50;3.40;;;13.50;99.90;;;;;;4959457;28;20467;-61
2023/08/09 03:35:10;;;;;;;3.90;3.53;;;13.50;99.90;;;;;;4959271;28;20467;-62
2023/08/09 03:37:38;;;;;;;3.90;3.50;;;13.60;99.90;;;;;;4959670;28;20539;-60
2023/08/09 03:40:08;;;;;;;4.80;3.97;;;13.50;99.90;;;;;;4959324;28;20907;-59
2023/08/09 03:42:37;;;;;;;4.60;4.10;;;13.50;99.90;;;;;;4977869;28;20466;-60
2023/08/09 03:45:04;;;;;;;4.67;4.27;;;13.50;99.90;;;;;;4972258;28;20469;-59
2023/08/09 03:47:31;;;;;;;4.67;3.80;;;13.50;99.90;;;;;;4958695;28;20777;-59
2023/08/09 03:49:59;;;;;;;5.00;4.47;;;13.50;99.90;;;;;;4959327;29;20469;-60
2023/08/09 03:52:26;;;;;;;5.40;4.90;;;13.40;99.90;;;;;;4969833;28;20524;-59
2023/08/09 03:54:55;;;;;;;6.07;5.03;;;13.40;99.90;;;;;;4977299;28;20482;-60
2023/08/09 03:57:22;;;;;;;4.87;4.47;;;13.50;99.90;;;;;;4978104;28;20520;-60
2023/08/09 03:59:51;;;;;;;5.90;5.40;;;13.50;99.90;;;;;;4978928;28;20532;-59
2023/08/09 04:02:18;;;;;;;9.20;6.20;;;13.40;99.90;;;;;;4967180;28;20473;-59
2023/08/09 04:04:46;;;;;;;7.20;6.60;;;13.50;99.90;;;;;;4958734;29;20463;-59
2023/08/09 04:07:13;;;;;;;7.10;6.50;;;13.50;99.90;;;;;;4973043;28;20462;-60
2023/08/09 04:09:40;;;;;;;6.73;6.13;;;13.50;99.90;;;;;;4978311;28;20472;-59
2023/08/09 04:12:08;;;;;;;6.73;6.13;;;13.60;99.90;;;;;;4978520;28;20544;-59
2023/08/09 04:14:35;;;;;;;7.30;6.60;;;13.50;99.90;;;;;;4977682;28;20469;-59
2023/08/09 04:17:06;;;;;;;6.90;6.30;;;13.50;99.90;;;;;;4967957;28;20506;-60
2023/08/09 04:19:33;;;;;;;8.00;6.80;;;13.50;99.90;;;;;;4958627;28;20525;-59
2023/08/09 04:22:01;;;;;;;8.20;7.00;;;13.40;99.90;;;;;;4959298;29;20463;-59
2023/08/09 04:24:28;;;;;;;8.57;7.20;;;13.30;99.90;;;;;;4958623;28;20469;-59
2023/08/09 04:26:55;;;;;;;8.27;7.40;;;13.30;99.90;;;;;;4962442;28;20907;-60
2023/08/09 04:29:22;;;;;;;9.63;7.87;;;13.20;99.90;;;;;;4976361;28;20901;-60
2023/08/09 04:31:49;;;;;;;8.70;7.90;;;13.30;99.90;;;;;;4976025;28;20560;-59
2023/08/09 04:34:18;;;;;;;7.83;7.10;;;13.20;99.90;;;;;;4976696;28;20466;-60
2023/08/09 04:36:45;;;;;;;9.07;8.20;;;13.10;99.90;;;;;;4976031;28;20530;-60
2023/08/09 04:39:13;;;;;;;9.47;8.57;;;13.10;99.90;;;;;;4962483;28;20469;-60
2023/08/09 04:41:40;;;;;;;8.80;8.00;;;13.10;99.90;;;;;;4976012;28;20536;-59
2023/08/09 04:44:07;;;;;;;10.10;9.20;;;13.20;99.90;;;;;;4976631;28;20466;-59
2023/08/09 04:46:34;;;;;;;10.50;9.17;;;13.20;99.90;;;;;;4977621;28;20900;-60
2023/08/09 04:49:03;;;;;;;9.00;8.20;;;13.20;99.90;;;;;;4963175;28;20916;-59
2023/08/09 04:51:32;;;;;;;9.30;8.07;;;13.10;99.90;;;;;;4957999;28;20499;-59
2023/08/09 04:53:59;;;;;;;9.03;8.30;;;13.10;99.90;;;;;;4961425;28;20466;-58
2023/08/09 04:56:26;;;;;;;8.90;8.10;;;13.20;99.90;;;;;;4962015;29;20963;-60
2023/08/09 04:58:54;;;;;;;8.50;7.70;;;13.30;99.90;;;;;;4969752;28;20560;-59
2023/08/09 05:01:21;;;;;;;10.10;8.00;;;13.30;99.90;;;;;;4981478;28;20469;-59
2023/08/09 05:03:49;;;;;;;9.63;8.50;;;13.20;99.90;;;;;;4981717;28;20512;-60
2023/08/09 05:06:16;;;;;;;10.07;9.27;;;13.30;99.90;;;;;;4982177;28;20439;-59
2023/08/09 05:08:45;;;;;;;9.37;8.60;;;13.40;99.90;;;;;;4978345;28;20473;-59
2023/08/09 05:11:12;;;;;;;9.90;9.10;;;13.50;99.90;;;;;;4961714;29;20481;-59
2023/08/09 05:13:39;;;;;;;10.50;9.60;;;13.60;99.90;;;;;;4969103;28;20472;-59
2023/08/09 05:16:07;;;;;;;9.87;8.97;;;13.70;99.90;;;;;;4979944;28;20471;-60
2023/08/09 05:18:34;;;;;;;10.80;9.87;;;13.80;99.90;;;;;;4979377;28;20513;-60
2023/08/09 05:21:01;;;;;;;9.43;8.53;;;13.80;99.90;;;;;;4962541;28;20467;-60
2023/08/09 05:23:28;;;;;;;10.60;9.70;;;13.90;99.90;;;;;;4960871;29;20561;-59
2023/08/09 05:25:57;;;;;;;10.77;9.83;;;13.90;99.90;;;;;;4960892;29;20563;-59
2023/08/09 05:28:24;;;;;;;10.27;9.37;;;14.00;99.90;;;;;;4960859;29;20473;-59
2023/08/09 05:30:51;;;;;;;8.30;7.60;;;14.00;99.90;;;;;;4972350;28;20473;-59
2023/08/09 05:33:18;;;;;;;8.70;7.90;;;14.00;99.90;;;;;;4981094;28;20928;-59
2023/08/09 05:35:45;;;;;;;10.23;9.33;;;13.90;99.90;;;;;;4979253;28;20477;-59
2023/08/09 05:38:12;;;;;;;10.40;9.40;;;13.60;99.90;;;;;;4979258;28;20943;-60
2023/08/09 05:40:39;;;;;;;11.60;10.50;;;13.70;99.90;;;;;;4962725;28;20919;-60
2023/08/09 05:43:08;;;;;;;10.90;9.80;;;13.70;99.90;;;;;;4959074;28;20494;-60
2023/08/09 05:45:35;;;;;;;13.30;12.00;;;13.60;99.90;;;;;;4959100;29;20920;-60
2023/08/09 05:48:03;;;;;;;11.97;10.57;;;13.80;99.90;;;;;;4959507;28;20559;-60
2023/08/09 05:50:30;;;;;;;12.03;10.83;;;13.70;99.90;;;;;;4958908;28;20509;-59
2023/08/09 05:52:57;;;;;;;10.57;9.60;;;13.90;99.90;;;;;;4960909;28;20469;-60
2023/08/09 05:55:24;;;;;;;12.73;11.60;;;13.90;99.90;;;;;;4961130;28;20462;-60
2023/08/09 05:57:52;;;;;;;11.93;10.83;;;14.00;99.90;;;;;;4961083;29;20772;-60
2023/08/09 06:00:20;;;;;;;11.60;10.47;;;14.20;99.90;;;;;;4961385;29;20473;-59
2023/08/09 06:02:48;;;;;;;12.33;11.17;;;14.20;99.90;;;;;;4974414;28;20627;-60
2023/08/09 06:05:19;;;;;;;11.93;10.83;;;14.30;99.90;;;;;;4977996;28;20837;-60
2023/08/09 06:07:46;;;;;;;11.43;10.20;;;14.40;99.90;;;;;;4979147;28;20863;-59
2023/08/09 06:10:13;;;;;;;12.33;11.20;;;14.50;99.90;;;;;;4978857;28;20433;-60
2023/08/09 06:12:40;;;;;;;11.67;10.43;;;14.60;99.90;;;;;;4968020;28;20756;-60
2023/08/09 06:15:09;;;;;;;12.43;11.23;;;14.60;99.90;;;;;;4958682;28;20473;-60
2023/08/09 06:17:37;;;;;;;12.13;11.03;;;14.70;99.90;;;;;;4959542;28;20476;-59
2023/08/09 06:20:06;;;;;;;13.10;11.70;;;14.70;99.90;;;;;;4961018;29;20557;-60
2023/08/09 06:22:34;;;;;;;12.50;11.20;;;14.90;99.90;;;;;;4969951;28;20739;-60
2023/08/09 06:25:01;;;;;;;12.40;11.30;;;14.90;99.90;;;;;;4959867;28;20489;-60
2023/08/09 06:27:29;;;;;;;13.40;12.23;;;14.90;99.90;;;;;;4960638;29;20463;-60
2023/08/09 06:29:56;;;;;;;13.27;11.93;;;14.80;99.90;;;;;;4960490;28;20466;-60
2023/08/09 06:32:23;;;;;;;12.83;11.57;;;14.80;99.90;;;;;;4960536;28;20469;-60
2023/08/09 06:34:52;;;;;;;16.00;14.30;;;14.80;99.90;;;;;;4959798;28;20476;-60
2023/08/09 06:37:19;;;;;;;15.00;12.97;;;14.80;99.90;;;;;;4960247;29;20497;-60
2023/08/09 06:39:46;;;;;;;13.90;12.60;;;14.70;99.90;;;;;;4960915;28;20865;-60
2023/08/09 06:42:13;;;;;;;14.63;13.13;;;15.00;99.90;;;;;;4960444;29;20780;-60
2023/08/09 06:44:41;;;;;;;15.63;14.03;;;15.00;99.90;;;;;;4969056;28;20524;-61
2023/08/09 06:47:08;;;;;;;15.47;13.97;;;15.20;99.90;;;;;;4959647;28;20485;-61
2023/08/09 06:49:35;;;;;;;15.43;13.30;;;15.60;99.90;;;;;;4958853;28;20836;-60
2023/08/09 06:52:04;;;;;;;15.03;13.43;;;15.80;99.90;;;;;;4958518;28;20486;-61
2023/08/09 06:54:32;;;;;;;14.70;13.20;;;15.90;99.90;;;;;;4966290;28;20466;-60
2023/08/09 06:56:59;;;;;;;12.23;10.93;;;16.20;99.90;;;;;;4962530;28;20473;-60
2023/08/09 06:59:26;;;;;;;13.80;12.40;;;16.50;99.90;;;;;;4959731;28;20513;-60
2023/08/09 07:01:53;;;;;;;12.93;11.63;;;16.60;99.90;;;;;;4959427;29;20897;-60
2023/08/09 07:04:20;;;;;;;15.13;11.40;;;17.00;99.90;;;;;;4963171;28;20476;-59
2023/08/09 07:06:47;;;;;;;12.70;11.43;;;16.30;1.00;;;;;;4979357;28;20453;-59
2023/08/09 07:09:18;;;;;;;12.43;11.13;;;16.20;99.90;;;;;;4978993;28;20470;-59
2023/08/09 07:11:46;;;;;;;12.50;11.30;;;16.10;99.90;;;;;;4979283;28;20565;-59
2023/08/09 07:14:13;;;;;;;15.47;12.77;;;16.40;99.90;;;;;;4979220;28;20462;-59
2023/08/09 07:16:41;;;;;;;13.07;11.80;;;16.80;10.30;;;;;;4959983;28;20503;-59
2023/08/09 07:19:08;;;;;;;11.23;10.10;;;16.80;8.80;;;;;;4959856;28;20485;-59
2023/08/09 07:21:35;;;;;;;12.83;11.40;;;16.60;1.00;;;;;;4959251;29;20564;-58
2023/08/09 07:24:02;;;;;;;12.30;11.00;;;16.70;47.00;;;;;;4959723;29;20553;-59
2023/08/09 07:26:31;;;;;;;14.57;13.07;;;16.70;7.40;;;;;;4970798;28;20477;-59
2023/08/09 07:28:59;;;;;;;14.63;12.80;;;16.70;44.70;;;;;;4978791;28;20561;-59
2023/08/09 07:31:26;;;;;;;14.67;12.40;;;16.50;1.00;;;;;;4978427;28;20470;-59
2023/08/09 07:33:53;;;;;;;12.97;11.73;;;16.50;99.90;;;;;;4979218;28;20765;-59
2023/08/09 07:36:21;;;;;;;12.50;10.60;;;16.80;99.90;;;;;;4971026;28;21019;-58
2023/08/09 07:38:48;;;;;;;12.27;10.87;;;17.00;6.20;;;;;;4959388;29;20588;-58
2023/08/09 07:41:15;;;;;;;10.50;9.50;;;17.50;99.90;;;;;;4959196;28;20490;-59
2023/08/09 07:43:44;;;;;;;11.90;9.37;;;17.90;99.90;;;;;;4958232;28;20467;-58
2023/08/09 07:46:11;;;;;;;11.73;10.07;;;18.30;1.00;;;;;;4958351;28;20521;-58
2023/08/09 07:48:38;;;;;;;11.03;9.90;;;18.80;1.00;;;;;;4957899;28;20501;-58
2023/08/09 07:51:06;;;;;;;12.03;10.40;;;19.30;1.00;;;;;;4958450;28;20490;-57
2023/08/09 07:53:33;;;;;;;11.53;9.40;;;19.20;1.00;;;;;;4959612;29;20944;-57
2023/08/09 07:56:00;;;;;;;11.60;10.00;;;18.70;1.00;;;;;;4958060;28;20469;-58
2023/08/09 07:58:27;;;;;;;11.70;10.27;;;18.40;1.00;;;;;;4956830;28;20502;-58
2023/08/09 08:00:56;;;;;;;12.60;11.30;;;18.10;1.00;;;;;;4956903;28;20473;-58
2023/08/09 08:03:23;;;;;;;12.73;11.50;;;17.80;1.00;;;;;;4957211;29;20900;-57
2023/08/09 08:05:51;;;;;;;11.50;10.40;;;18.00;1.00;;;;;;4956705;28;20501;-58
2023/08/09 08:08:18;;;;;;;10.93;9.83;;;18.30;1.00;;;;;;4965460;28;20465;-57
2023/08/09 08:10:46;;;;;;;11.03;9.50;;;18.40;1.00;;;;;;4975675;28;20776;-58
2023/08/09 08:13:14;;;;;;;9.90;9.00;;;18.60;1.00;;;;;;4976505;28;20564;-58
2023/08/09 08:15:41;;;;;;;8.73;7.93;;;18.80;1.00;;;;;;4976444;28;20521;-57
2023/08/09 08:18:10;;;;;;;8.43;7.67;;;18.70;1.00;;;;;;4970927;28;20672;-58
2023/08/09 08:20:37;;;;;;;8.70;7.90;;;19.00;1.00;;;;;;4957686;28;20511;-57
2023/08/09 08:23:06;;;;;;;13.13;8.90;;;19.20;1.00;;;;;;4957384;28;20467;-57
2023/08/09 08:25:33;;;;;;;10.23;9.20;;;18.90;1.00;;;;;;4957897;29;20467;-56
2023/08/09 08:28:01;;;;;;;10.30;9.27;;;18.60;1.00;;;;;;4960076;28;20470;-56
2023/08/09 08:30:28;;;;;;;9.90;8.90;;;19.00;1.00;;;;;;4962725;29;20508;-57
2023/08/09 08:32:55;;;;;;;9.97;8.90;;;19.50;1.00;;;;;;4967855;28;20461;-56
2023/08/09 08:35:24;;;;;;;14.77;10.50;;;20.00;1.00;;;;;;4982257;28;20466;-55
2023/08/09 08:37:53;;;;;;;10.73;9.73;;;20.40;1.00;;;;;;4982009;28;20493;-57
2023/08/09 08:40:21;;;;;;;9.70;7.97;;;20.40;1.00;;;;;;4966625;28;20771;-54
2023/08/09 08:42:49;;;;;;;8.43;7.63;;;20.00;1.00;;;;;;4962281;28;20979;-57
2023/08/09 08:45:17;;;;;;;9.30;8.40;;;19.50;1.00;;;;;;4962459;29;20461;-55
2023/08/09 08:47:45;;;;;;;8.30;7.50;;;19.50;1.00;;;;;;4971337;28;20497;-53
2023/08/09 08:50:14;;;;;;;8.23;7.40;;;19.60;1.00;;;;;;4982158;28;20547;-52
2023/08/09 08:52:44;;;;;;;9.87;7.70;;;19.60;1.00;;;;;;4980932;28;20588;-56
2023/08/09 08:55:13;;;;;;;10.13;9.13;;;19.90;1.00;;;;;;4981627;28;20462;-57
2023/08/09 08:57:42;;;;;;;11.20;10.10;;;20.20;1.00;;;;;;4976566;28;20557;-55
2023/08/09 09:00:15;;;;;;;11.53;10.33;;;19.80;1.00;;;;;;4962712;28;20459;-56
2023/08/09 09:02:44;;;;;;;10.17;9.17;;;19.60;1.00;;;;;;4962111;28;20565;-55
2023/08/09 09:05:11;;;;;;;13.67;9.47;;;19.60;1.00;;;;;;4962414;28;20470;-53
2023/08/09 09:07:39;;;;;;;9.40;8.40;;;19.70;1.00;;;;;;4961996;29;20556;-58
2023/08/09 09:10:10;;;;;;;9.77;7.57;;;20.00;1.00;;;;;;4961909;28;20557;-55
2023/08/09 09:12:38;;;;;;;8.43;7.70;;;20.10;1.00;;;;;;4962258;29;21013;-52
2023/08/09 09:15:08;;;;;;;8.50;7.50;;;19.80;1.00;;;;;;4961856;28;20513;-56
2023/08/09 09:17:38;;;;;;;7.40;6.70;;;19.60;1.00;;;;;;4961790;29;20490;-54
2023/08/09 09:20:10;;;;;;;8.63;7.83;;;19.30;99.90;;;;;;4974487;28;20465;-54
2023/08/09 09:22:38;;;;;;;8.93;8.23;;;19.70;1.00;;;;;;4981098;28;20879;-55
2023/08/09 09:25:10;;;;;;;10.80;8.03;;;20.50;1.00;;;;;;4980980;28;20505;-54
2023/08/09 09:27:40;;;;;;;9.70;8.70;;;21.20;1.00;;;;;;4981499;28;20758;-56
2023/08/09 09:30:13;;;;;;;9.00;8.20;;;21.00;1.00;;;;;;4969375;28;20462;-57
2023/08/09 09:32:52;;;;;;;8.93;7.70;;;20.00;99.90;;;;;;4961165;29;20471;-56
2023/08/09 09:35:20;;;;;;;7.23;6.53;;;19.60;99.90;;;;;;4961161;28;20577;-55
2023/08/09 09:37:48;;;;;;;7.87;7.07;;;19.50;99.90;;;;;;4961623;28;20502;-57
2023/08/09 09:40:23;;;;;;;6.90;6.20;;;19.90;99.90;;;;;;4968583;28;20824;-57
2023/08/09 09:42:54;;;;;;;7.30;6.47;;;19.60;99.90;;;;;;4980414;28;20516;-56
2023/08/09 09:45:24;;;;;;;6.63;6.03;;;20.50;99.90;;;;;;4981022;28;20465;-57
2023/08/09 09:47:52;;;;;;;7.10;6.40;;;20.30;99.90;;;;;;4981208;28;20859;-57
2023/08/09 09:50:22;;;;;;;7.43;6.73;;;20.40;99.90;;;;;;4975273;28;20467;-57
2023/08/09 09:52:50;;;;;;;7.70;6.77;;;20.60;99.90;;;;;;4961364;29;20924;-58
2023/08/09 09:55:19;;;;;;;6.23;5.77;;;21.00;99.90;;;;;;4961156;28;20466;-58
2023/08/09 09:57:49;;;;;;;7.10;6.10;;;20.90;99.90;;;;;;4961213;29;20541;-58
2023/08/09 10:00:20;;;;;;;5.77;5.27;;;20.90;99.90;;;;;;4961333;28;20547;-58
2023/08/09 10:02:49;;;;;;;5.97;5.47;;;20.90;99.90;;;;;;4980104;28;20470;-58
2023/08/09 10:05:19;;;;;;;6.67;5.30;;;20.70;99.90;;;;;;4979978;28;20556;-57
2023/08/09 10:07:47;;;;;;;5.87;5.37;;;21.40;99.90;;;;;;4980878;28;20508;-57
2023/08/09 10:10:16;;;;;;;5.77;4.97;;;21.60;99.90;;;;;;4979823;28;20552;-58
2023/08/09 10:12:49;;;;;;;7.73;7.03;;;22.30;1.00;;;;;;4963326;28;20537;-58
2023/08/09 10:15:21;;;;;;;8.00;5.90;;;21.90;1.00;;;;;;4960127;28;20970;-59
2023/08/09 10:17:52;;;;;;;6.17;5.67;;;21.70;99.90;;;;;;4960891;29;20467;-59
2023/08/09 10:20:20;;;;;;;4.90;4.50;;;21.70;99.90;;;;;;4961122;29;20459;-58
2023/08/09 10:22:48;;;;;;;4.83;4.43;;;22.60;1.00;;;;;;4973059;28;20466;-58
2023/08/09 10:25:16;;;;;;;5.77;4.07;;;22.60;99.90;;;;;;4980229;28;20560;-59
2023/08/09 10:27:59;;;;;;;4.77;4.23;;;22.10;99.90;;;;;;4979474;28;20470;-58
2023/08/09 10:30:28;;;;;;;5.40;4.50;;;22.00;99.90;;;;;;4979573;28;20462;-58
2023/08/09 10:32:57;;;;;;;9.97;5.63;;;21.50;99.90;;;;;;4969131;28;20470;-58
2023/08/09 10:35:50;;;;;;;5.23;4.83;;;20.90;99.90;;;;;;4960675;28;20469;-58
2023/08/09 10:38:19;;;;;;;6.00;5.40;;;20.30;99.90;;;;;;4960586;28;20869;-58
2023/08/09 10:40:52;;;;;;;7.90;5.40;;;20.40;99.90;;;;;;4960462;29;20512;-58
2023/08/09 10:43:22;;;;;;;6.33;5.73;;;20.20;99.90;;;;;;4968820;28;20771;-57
2023/08/09 10:45:53;;;;;;;9.10;5.70;;;20.60;99.90;;;;;;4979015;28;20472;-58
2023/08/09 10:48:25;;;;;;;6.30;5.70;;;20.90;99.90;;;;;;4979385;28;20976;-58
2023/08/09 10:51:03;;;;;;;6.23;5.63;;;20.40;99.90;;;;;;4979509;28;20556;-60
2023/08/09 10:53:30;;;;;;;5.67;5.17;;;20.40;99.90;;;;;;4960362;28;20469;-59
2023/08/09 10:55:58;;;;;;;6.50;5.90;;;20.40;99.90;;;;;;4960054;28;20558;-59
2023/08/09 10:58:30;;;;;;;6.07;5.57;;;20.60;99.90;;;;;;4958918;28;20501;-59
2023/08/09 11:00:57;;;;;;;6.07;5.53;;;20.80;99.90;;;;;;4957085;29;20466;-59
2023/08/09 11:03:29;;;;;;;6.37;5.77;;;21.10;99.90;;;;;;4957322;28;20455;-59
2023/08/09 11:05:57;;;;;;;7.10;5.33;;;20.50;99.90;;;;;;4958798;29;20463;-59
2023/08/09 11:08:24;;;;;;;6.80;5.30;;;20.40;99.90;;;;;;4957257;28;20549;-58
2023/08/09 11:10:52;;;;;;;6.60;5.60;;;20.40;99.90;;;;;;4958519;28;20768;-59
2023/08/09 11:13:19;;;;;;;7.37;6.67;;;20.20;99.90;;;;;;4959142;29;20549;-59
2023/08/09 11:15:51;;;;;;;6.97;5.70;;;20.60;99.90;;;;;;4958758;28;20481;-58
2023/08/09 11:18:18;;;;;;;5.83;5.33;;;20.70;99.90;;;;;;4958326;28;20521;-60
2023/08/09 11:20:46;;;;;;;6.40;5.77;;;20.60;99.90;;;;;;4957752;29;20514;-59
2023/08/09 11:23:13;;;;;;;6.40;5.80;;;20.70;99.90;;;;;;4959195;29;20885;-59
2023/08/09 11:25:40;;;;;;;6.60;5.70;;;21.00;99.90;;;;;;4968394;28;20477;-59
2023/08/09 11:28:12;;;;;;;6.67;6.07;;;21.20;99.90;;;;;;4977036;28;20476;-59
2023/08/09 11:30:40;;;;;;;5.67;5.17;;;21.00;99.90;;;;;;4977320;28;20800;-59
2023/08/09 11:33:11;;;;;;;5.20;4.70;;;20.40;99.90;;;;;;4977057;28;20958;-59
2023/08/09 11:35:43;;;;;;;6.03;5.53;;;20.50;99.90;;;;;;4969812;28;20466;-59
2023/08/09 11:38:14;;;;;;;5.90;5.33;;;21.00;99.90;;;;;;4958179;29;20466;-58
2023/08/09 11:40:43;;;;;;;6.60;5.90;;;21.20;99.90;;;;;;4958243;28;20788;-59
2023/08/09 11:43:16;;;;;;;5.63;5.13;;;21.40;99.90;;;;;;4958748;28;20502;-58
2023/08/09 11:45:49;;;;;;;6.77;6.17;;;21.20;99.90;;;;;;4957006;28;20787;-58
2023/08/09 11:48:30;;;;;;;6.77;5.43;;;21.20;99.90;;;;;;4957952;28;20467;-59
2023/08/09 11:51:06;;;;;;;6.63;4.93;;;21.00;99.90;;;;;;4956843;28;20474;-59
2023/08/09 11:53:35;;;;;;;5.67;5.17;;;20.60;99.90;;;;;;4956851;28;20485;-60
2023/08/09 11:56:05;;;;;;;6.20;5.60;;;20.70;99.90;;;;;;4957828;28;20437;-58
2023/08/09 11:58:35;;;;;;;6.53;5.70;;;21.00;99.90;;;;;;4957445;29;20534;-59
2023/08/09 12:01:16;;;;;;;6.80;6.20;;;21.50;99.90;;;;;;4957389;28;20455;-58
2023/08/09 12:03:46;;;;;;;6.57;5.87;;;21.90;99.90;;;;;;4958701;28;20502;-58
2023/08/09 12:06:14;;;;;;;5.43;4.93;;;21.90;99.90;;;;;;4958925;29;20517;-60
2023/08/09 12:08:41;;;;;;;5.60;5.10;;;22.00;99.90;;;;;;4958976;28;20506;-59
2023/08/09 12:11:17;;;;;;;7.93;5.70;;;22.00;99.90;;;;;;4958855;28;20561;-60
2023/08/09 12:13:44;;;;;;;5.27;4.83;;;22.20;99.90;;;;;;4963936;28;20911;-59
2023/08/09 12:16:12;;;;;;;5.47;4.97;;;22.40;99.90;;;;;;4969426;28;20471;-60
2023/08/09 12:18:39;;;;;;;6.03;4.90;;;22.40;99.90;;;;;;4958970;28;20581;-59
2023/08/09 12:21:08;;;;;;;4.90;4.50;;;22.30;99.90;;;;;;4956678;28;20477;-59
2023/08/09 12:23:37;;;;;;;5.70;5.10;;;22.70;99.90;;;;;;4956283;28;20916;-59
2023/08/09 12:26:07;;;;;;;6.00;5.40;;;23.10;99.90;;;;;;4956482;29;20717;-60
2023/08/09 12:28:34;;;;;;;6.40;4.80;;;23.10;99.90;;;;;;4966246;28;20920;-60
2023/08/09 12:31:01;;;;;;;6.00;5.50;;;22.90;99.90;;;;;;4976923;28;20556;-58
2023/08/09 12:33:29;;;;;;;5.83;4.80;;;22.70;99.90;;;;;;4977456;28;20561;-58
2023/08/09 12:35:56;;;;;;;5.13;4.70;;;22.40;99.90;;;;;;4964423;28;20530;-59
2023/08/09 12:38:25;;;;;;;4.63;4.20;;;22.70;99.90;;;;;;4959700;28;20548;-59
2023/08/09 12:40:52;;;;;;;6.30;5.30;;;22.70;99.90;;;;;;4974340;28;20478;-59
2023/08/09 12:43:20;;;;;;;4.90;4.20;;;22.70;99.90;;;;;;4965139;28;20510;-59
2023/08/09 12:45:47;;;;;;;4.63;3.90;;;22.90;99.90;;;;;;4956465;29;20462;-59
2023/08/09 12:48:15;;;;;;;4.43;4.03;;;22.80;99.90;;;;;;4962936;28;20466;-59
2023/08/09 12:50:43;;;;;;;4.17;3.67;;;22.50;99.90;;;;;;4974186;28;20466;-59